sensor_id;sensor_type;location;lat;lon;timestamp;P1;durP1;ratioP1;P2;durP2;ratioP2
48161;SDS011;33950;48.154;16.316;2022-09-13T00:00:25;7.35;;;4.00;;
48161;SDS011;33950;48.154;16.316;2022-09-13T00:03:11;5.28;;;3.95;;
48161;SDS011;33950;48.154;16.316;2022-09-13T00:05:57;3.85;;;3.45;;
48161;SDS011;33950;48.154;16.316;2022-09-13T00:08:50;5.78;;;3.58;;
48161;SDS011;33950;48.154;16.316;2022-09-13T00:11:39;12.45;;;4.88;;
48161;SDS011;33950;48.154;16.316;2022-09-13T00:14:25;5.13;;;4.40;;
48161;SDS011;33950;48.154;16.316;2022-09-13T00:17:12;10.35;;;3.90;;
48161;SDS011;33950;48.154;16.316;2022-09-13T00:19:58;6.75;;;3.63;;
48161;SDS011;33950;48.154;16.316;2022-09-13T00:22:45;5.30;;;3.50;;
48161;SDS011;33950;48.154;16.316;2022-09-13T00:25:31;5.90;;;3.70;;
48161;SDS011;33950;48.154;16.316;2022-09-13T00:28:18;4.95;;;3.60;;
48161;SDS011;33950;48.154;16.316;2022-09-13T00:31:05;6.82;;;3.53;;
48161;SDS011;33950;48.154;16.316;2022-09-13T00:33:53;7.03;;;3.95;;
48161;SDS011;33950;48.154;16.316;2022-09-13T00:36:39;8.57;;;4.25;;
48161;SDS011;33950;48.154;16.316;2022-09-13T00:39:25;11.20;;;4.00;;
48161;SDS011;33950;48.154;16.316;2022-09-13T00:42:12;7.28;;;3.97;;
48161;SDS011;33950;48.154;16.316;2022-09-13T00:45:00;5.75;;;3.92;;
48161;SDS011;33950;48.154;16.316;2022-09-13T00:47:59;14.63;;;4.15;;
48161;SDS011;33950;48.154;16.316;2022-09-13T00:50:48;7.80;;;4.30;;
48161;SDS011;33950;48.154;16.316;2022-09-13T00:53:39;8.07;;;3.80;;
48161;SDS011;33950;48.154;16.316;2022-09-13T00:56:30;12.15;;;4.43;;
48161;SDS011;33950;48.154;16.316;2022-09-13T00:59:19;7.07;;;3.80;;
48161;SDS011;33950;48.154;16.316;2022-09-13T01:02:10;7.72;;;4.70;;
48161;SDS011;33950;48.154;16.316;2022-09-13T01:04:57;14.50;;;4.53;;
48161;SDS011;33950;48.154;16.316;2022-09-13T01:07:43;5.13;;;3.50;;
48161;SDS011;33950;48.154;16.316;2022-09-13T01:10:30;6.70;;;3.60;;
48161;SDS011;33950;48.154;16.316;2022-09-13T01:13:20;4.70;;;3.90;;
48161;SDS011;33950;48.154;16.316;2022-09-13T01:16:08;17.13;;;3.88;;
48161;SDS011;33950;48.154;16.316;2022-09-13T01:18:56;5.68;;;3.50;;
48161;SDS011;33950;48.154;16.316;2022-09-13T01:21:58;8.65;;;3.70;;
48161;SDS011;33950;48.154;16.316;2022-09-13T01:28:17;4.20;;;3.15;;
48161;SDS011;33950;48.154;16.316;2022-09-13T01:31:39;5.47;;;3.22;;
48161;SDS011;33950;48.154;16.316;2022-09-13T01:34:38;11.48;;;3.53;;
48161;SDS011;33950;48.154;16.316;2022-09-13T01:37:38;7.65;;;3.53;;
48161;SDS011;33950;48.154;16.316;2022-09-13T01:40:38;8.73;;;4.05;;
48161;SDS011;33950;48.154;16.316;2022-09-13T01:43:39;7.40;;;4.17;;
48161;SDS011;33950;48.154;16.316;2022-09-13T01:46:35;7.05;;;4.35;;
48161;SDS011;33950;48.154;16.316;2022-09-13T01:49:28;14.20;;;4.43;;
48161;SDS011;33950;48.154;16.316;2022-09-13T01:52:20;6.75;;;4.05;;
48161;SDS011;33950;48.154;16.316;2022-09-13T01:55:17;7.20;;;4.07;;
48161;SDS011;33950;48.154;16.316;2022-09-13T01:58:15;5.72;;;3.63;;
48161;SDS011;33950;48.154;16.316;2022-09-13T02:01:08;5.40;;;3.45;;
48161;SDS011;33950;48.154;16.316;2022-09-13T02:04:03;5.20;;;3.33;;
48161;SDS011;33950;48.154;16.316;2022-09-13T02:06:57;9.50;;;4.25;;
48161;SDS011;33950;48.154;16.316;2022-09-13T02:09:47;5.53;;;3.83;;
48161;SDS011;33950;48.154;16.316;2022-09-13T02:12:36;7.55;;;3.65;;
48161;SDS011;33950;48.154;16.316;2022-09-13T02:15:27;3.88;;;3.47;;
48161;SDS011;33950;48.154;16.316;2022-09-13T02:18:19;5.28;;;3.42;;
48161;SDS011;33950;48.154;16.316;2022-09-13T02:21:10;8.73;;;3.65;;
48161;SDS011;33950;48.154;16.316;2022-09-13T02:24:01;4.85;;;3.63;;
48161;SDS011;33950;48.154;16.316;2022-09-13T02:26:51;4.90;;;3.80;;
48161;SDS011;33950;48.154;16.316;2022-09-13T02:29:39;3.65;;;3.00;;
48161;SDS011;33950;48.154;16.316;2022-09-13T02:32:29;5.25;;;3.72;;
48161;SDS011;33950;48.154;16.316;2022-09-13T02:35:20;4.90;;;3.73;;
48161;SDS011;33950;48.154;16.316;2022-09-13T02:38:12;7.00;;;3.53;;
48161;SDS011;33950;48.154;16.316;2022-09-13T02:41:06;8.48;;;3.92;;
48161;SDS011;33950;48.154;16.316;2022-09-13T02:43:59;5.07;;;3.97;;
48161;SDS011;33950;48.154;16.316;2022-09-13T02:47:03;8.30;;;3.60;;
48161;SDS011;33950;48.154;16.316;2022-09-13T02:50:13;5.28;;;3.65;;
48161;SDS011;33950;48.154;16.316;2022-09-13T02:53:11;5.38;;;3.83;;
48161;SDS011;33950;48.154;16.316;2022-09-13T02:56:03;6.97;;;4.07;;
48161;SDS011;33950;48.154;16.316;2022-09-13T02:58:57;5.05;;;4.00;;
48161;SDS011;33950;48.154;16.316;2022-09-13T03:01:49;5.22;;;3.90;;
48161;SDS011;33950;48.154;16.316;2022-09-13T03:04:39;7.20;;;4.22;;
48161;SDS011;33950;48.154;16.316;2022-09-13T03:07:25;8.40;;;3.60;;
48161;SDS011;33950;48.154;16.316;2022-09-13T03:10:14;6.85;;;3.85;;
48161;SDS011;33950;48.154;16.316;2022-09-13T03:13:06;5.03;;;4.03;;
48161;SDS011;33950;48.154;16.316;2022-09-13T03:16:15;5.25;;;3.72;;
48161;SDS011;33950;48.154;16.316;2022-09-13T03:19:18;7.70;;;4.00;;
48161;SDS011;33950;48.154;16.316;2022-09-13T03:22:20;5.10;;;3.80;;
48161;SDS011;33950;48.154;16.316;2022-09-13T03:25:24;6.65;;;3.90;;
48161;SDS011;33950;48.154;16.316;2022-09-13T03:28:22;8.50;;;3.83;;
48161;SDS011;33950;48.154;16.316;2022-09-13T03:31:17;8.50;;;4.07;;
48161;SDS011;33950;48.154;16.316;2022-09-13T03:34:07;6.87;;;3.83;;
48161;SDS011;33950;48.154;16.316;2022-09-13T03:36:57;10.35;;;3.53;;
48161;SDS011;33950;48.154;16.316;2022-09-13T03:39:51;4.43;;;3.47;;
48161;SDS011;33950;48.154;16.316;2022-09-13T03:42:41;6.22;;;3.22;;
48161;SDS011;33950;48.154;16.316;2022-09-13T03:45:34;8.07;;;4.23;;
48161;SDS011;33950;48.154;16.316;2022-09-13T03:48:24;6.07;;;3.40;;
48161;SDS011;33950;48.154;16.316;2022-09-13T03:51:12;7.22;;;3.60;;
48161;SDS011;33950;48.154;16.316;2022-09-13T03:53:59;6.10;;;4.20;;
48161;SDS011;33950;48.154;16.316;2022-09-13T03:59:53;4.78;;;3.63;;
48161;SDS011;33950;48.154;16.316;2022-09-13T04:02:42;5.03;;;3.65;;
48161;SDS011;33950;48.154;16.316;2022-09-13T04:05:29;6.95;;;3.58;;
48161;SDS011;33950;48.154;16.316;2022-09-13T04:08:15;8.15;;;3.60;;
48161;SDS011;33950;48.154;16.316;2022-09-13T04:11:01;7.05;;;4.20;;
48161;SDS011;33950;48.154;16.316;2022-09-13T04:13:47;6.63;;;3.45;;
48161;SDS011;33950;48.154;16.316;2022-09-13T04:16:33;6.80;;;3.78;;
48161;SDS011;33950;48.154;16.316;2022-09-13T04:19:22;5.88;;;3.97;;
48161;SDS011;33950;48.154;16.316;2022-09-13T04:22:09;10.90;;;4.40;;
48161;SDS011;33950;48.154;16.316;2022-09-13T04:24:55;7.35;;;3.50;;
48161;SDS011;33950;48.154;16.316;2022-09-13T04:27:41;7.05;;;4.20;;
48161;SDS011;33950;48.154;16.316;2022-09-13T04:30:27;11.52;;;4.07;;
48161;SDS011;33950;48.154;16.316;2022-09-13T04:33:14;4.88;;;3.90;;
48161;SDS011;33950;48.154;16.316;2022-09-13T04:36:03;4.05;;;3.63;;
48161;SDS011;33950;48.154;16.316;2022-09-13T04:38:49;11.27;;;4.15;;
48161;SDS011;33950;48.154;16.316;2022-09-13T04:41:35;6.95;;;4.28;;
48161;SDS011;33950;48.154;16.316;2022-09-13T04:44:21;6.35;;;4.10;;
48161;SDS011;33950;48.154;16.316;2022-09-13T04:47:08;6.60;;;4.57;;
48161;SDS011;33950;48.154;16.316;2022-09-13T04:49:55;15.40;;;4.25;;
48161;SDS011;33950;48.154;16.316;2022-09-13T04:52:42;4.78;;;4.00;;
48161;SDS011;33950;48.154;16.316;2022-09-13T04:55:28;7.00;;;3.85;;
48161;SDS011;33950;48.154;16.316;2022-09-13T04:58:14;10.93;;;4.82;;
48161;SDS011;33950;48.154;16.316;2022-09-13T05:01:01;6.63;;;4.13;;
48161;SDS011;33950;48.154;16.316;2022-09-13T05:03:47;10.05;;;4.47;;
48161;SDS011;33950;48.154;16.316;2022-09-13T05:06:36;9.82;;;3.83;;
48161;SDS011;33950;48.154;16.316;2022-09-13T05:09:24;7.15;;;4.88;;
48161;SDS011;33950;48.154;16.316;2022-09-13T05:12:10;4.97;;;3.80;;
48161;SDS011;33950;48.154;16.316;2022-09-13T05:14:56;12.02;;;4.07;;
48161;SDS011;33950;48.154;16.316;2022-09-13T05:17:42;9.05;;;3.97;;
48161;SDS011;33950;48.154;16.316;2022-09-13T05:20:28;19.02;;;5.35;;
48161;SDS011;33950;48.154;16.316;2022-09-13T05:23:15;9.15;;;5.07;;
48161;SDS011;33950;48.154;16.316;2022-09-13T05:26:03;9.77;;;4.93;;
48161;SDS011;33950;48.154;16.316;2022-09-13T05:28:50;10.25;;;5.25;;
48161;SDS011;33950;48.154;16.316;2022-09-13T05:31:37;21.50;;;7.38;;
48161;SDS011;33950;48.154;16.316;2022-09-13T05:34:25;17.13;;;8.20;;
48161;SDS011;33950;48.154;16.316;2022-09-13T05:37:11;21.27;;;7.85;;
48161;SDS011;33950;48.154;16.316;2022-09-13T05:39:57;22.23;;;9.25;;
48161;SDS011;33950;48.154;16.316;2022-09-13T05:42:44;30.70;;;8.10;;
48161;SDS011;33950;48.154;16.316;2022-09-13T05:45:30;21.77;;;9.05;;
48161;SDS011;33950;48.154;16.316;2022-09-13T05:48:17;19.60;;;9.55;;
48161;SDS011;33950;48.154;16.316;2022-09-13T05:51:03;23.55;;;9.65;;
48161;SDS011;33950;48.154;16.316;2022-09-13T05:53:51;21.00;;;8.50;;
48161;SDS011;33950;48.154;16.316;2022-09-13T05:56:39;22.13;;;8.90;;
48161;SDS011;33950;48.154;16.316;2022-09-13T05:59:26;19.73;;;8.98;;
48161;SDS011;33950;48.154;16.316;2022-09-13T06:02:12;19.02;;;9.82;;
48161;SDS011;33950;48.154;16.316;2022-09-13T06:04:58;25.98;;;14.63;;
48161;SDS011;33950;48.154;16.316;2022-09-13T06:07:44;23.35;;;10.20;;
48161;SDS011;33950;48.154;16.316;2022-09-13T06:10:31;20.92;;;11.35;;
48161;SDS011;33950;48.154;16.316;2022-09-13T06:13:17;22.17;;;10.38;;
48161;SDS011;33950;48.154;16.316;2022-09-13T06:16:06;21.17;;;9.32;;
48161;SDS011;33950;48.154;16.316;2022-09-13T06:18:53;17.38;;;9.13;;
48161;SDS011;33950;48.154;16.316;2022-09-13T06:21:39;16.13;;;9.85;;
48161;SDS011;33950;48.154;16.316;2022-09-13T06:24:26;16.65;;;10.88;;
48161;SDS011;33950;48.154;16.316;2022-09-13T06:27:12;19.45;;;10.10;;
48161;SDS011;33950;48.154;16.316;2022-09-13T06:29:58;19.10;;;10.13;;
48161;SDS011;33950;48.154;16.316;2022-09-13T06:32:46;17.77;;;10.57;;
48161;SDS011;33950;48.154;16.316;2022-09-13T06:35:32;15.77;;;9.50;;
48161;SDS011;33950;48.154;16.316;2022-09-13T06:38:18;17.50;;;10.10;;
48161;SDS011;33950;48.154;16.316;2022-09-13T06:41:05;19.92;;;10.20;;
48161;SDS011;33950;48.154;16.316;2022-09-13T06:43:53;17.85;;;9.23;;
48161;SDS011;33950;48.154;16.316;2022-09-13T06:46:40;18.80;;;8.90;;
48161;SDS011;33950;48.154;16.316;2022-09-13T06:49:27;16.23;;;8.63;;
48161;SDS011;33950;48.154;16.316;2022-09-13T06:52:15;15.75;;;8.27;;
48161;SDS011;33950;48.154;16.316;2022-09-13T06:55:01;18.00;;;8.32;;
48161;SDS011;33950;48.154;16.316;2022-09-13T06:57:48;11.93;;;8.05;;
48161;SDS011;33950;48.154;16.316;2022-09-13T07:00:34;12.43;;;7.47;;
48161;SDS011;33950;48.154;16.316;2022-09-13T07:03:20;16.17;;;8.05;;
48161;SDS011;33950;48.154;16.316;2022-09-13T07:06:09;12.05;;;8.35;;
48161;SDS011;33950;48.154;16.316;2022-09-13T07:08:56;13.63;;;8.63;;
48161;SDS011;33950;48.154;16.316;2022-09-13T07:11:44;11.50;;;7.45;;
48161;SDS011;33950;48.154;16.316;2022-09-13T07:14:31;12.82;;;7.45;;
48161;SDS011;33950;48.154;16.316;2022-09-13T07:17:17;15.63;;;6.95;;
48161;SDS011;33950;48.154;16.316;2022-09-13T07:20:03;10.88;;;6.90;;
48161;SDS011;33950;48.154;16.316;2022-09-13T07:22:53;11.75;;;7.07;;
48161;SDS011;33950;48.154;16.316;2022-09-13T07:25:39;13.80;;;7.35;;
48161;SDS011;33950;48.154;16.316;2022-09-13T07:28:25;12.13;;;6.53;;
48161;SDS011;33950;48.154;16.316;2022-09-13T07:31:12;12.43;;;6.38;;
48161;SDS011;33950;48.154;16.316;2022-09-13T07:34:00;16.52;;;7.00;;
48161;SDS011;33950;48.154;16.316;2022-09-13T07:36:47;9.63;;;6.47;;
48161;SDS011;33950;48.154;16.316;2022-09-13T07:39:35;9.75;;;5.80;;
48161;SDS011;33950;48.154;16.316;2022-09-13T07:42:21;10.32;;;5.72;;
48161;SDS011;33950;48.154;16.316;2022-09-13T07:45:08;12.88;;;5.70;;
48161;SDS011;33950;48.154;16.316;2022-09-13T07:47:57;10.38;;;5.93;;
48161;SDS011;33950;48.154;16.316;2022-09-13T07:50:43;13.95;;;5.97;;
48161;SDS011;33950;48.154;16.316;2022-09-13T07:53:29;10.75;;;4.95;;
48161;SDS011;33950;48.154;16.316;2022-09-13T07:56:18;6.65;;;4.28;;
48161;SDS011;33950;48.154;16.316;2022-09-13T07:59:06;12.48;;;3.85;;
48161;SDS011;33950;48.154;16.316;2022-09-13T08:01:55;6.35;;;3.58;;
48161;SDS011;33950;48.154;16.316;2022-09-13T08:04:41;8.07;;;3.78;;
48161;SDS011;33950;48.154;16.316;2022-09-13T08:07:27;8.70;;;3.83;;
48161;SDS011;33950;48.154;16.316;2022-09-13T08:10:14;8.25;;;4.65;;
48161;SDS011;33950;48.154;16.316;2022-09-13T08:13:01;12.05;;;5.95;;
48161;SDS011;33950;48.154;16.316;2022-09-13T08:15:47;5.68;;;4.50;;
48161;SDS011;33950;48.154;16.316;2022-09-13T08:18:34;8.27;;;4.63;;
48161;SDS011;33950;48.154;16.316;2022-09-13T08:21:20;7.90;;;5.85;;
48161;SDS011;33950;48.154;16.316;2022-09-13T08:24:10;8.55;;;5.40;;
48161;SDS011;33950;48.154;16.316;2022-09-13T08:26:58;8.68;;;5.68;;
48161;SDS011;33950;48.154;16.316;2022-09-13T08:29:45;10.20;;;4.88;;
48161;SDS011;33950;48.154;16.316;2022-09-13T08:32:31;11.27;;;4.93;;
48161;SDS011;33950;48.154;16.316;2022-09-13T08:35:17;7.97;;;4.90;;
48161;SDS011;33950;48.154;16.316;2022-09-13T08:38:03;7.53;;;4.45;;
48161;SDS011;33950;48.154;16.316;2022-09-13T08:40:52;7.40;;;4.95;;
48161;SDS011;33950;48.154;16.316;2022-09-13T08:43:42;8.77;;;5.03;;
48161;SDS011;33950;48.154;16.316;2022-09-13T08:46:35;9.25;;;5.15;;
48161;SDS011;33950;48.154;16.316;2022-09-13T08:49:25;8.82;;;5.72;;
48161;SDS011;33950;48.154;16.316;2022-09-13T08:52:26;8.02;;;5.00;;
48161;SDS011;33950;48.154;16.316;2022-09-13T08:55:20;8.82;;;5.38;;
48161;SDS011;33950;48.154;16.316;2022-09-13T08:58:18;8.50;;;4.55;;
48161;SDS011;33950;48.154;16.316;2022-09-13T09:01:20;12.63;;;7.43;;
48161;SDS011;33950;48.154;16.316;2022-09-13T09:04:24;10.15;;;5.15;;
48161;SDS011;33950;48.154;16.316;2022-09-13T09:10:11;9.73;;;5.22;;
48161;SDS011;33950;48.154;16.316;2022-09-13T09:13:02;7.80;;;5.75;;
48161;SDS011;33950;48.154;16.316;2022-09-13T09:15:54;10.38;;;5.40;;
48161;SDS011;33950;48.154;16.316;2022-09-13T09:18:43;11.13;;;4.82;;
48161;SDS011;33950;48.154;16.316;2022-09-13T09:21:34;11.95;;;5.80;;
48161;SDS011;33950;48.154;16.316;2022-09-13T09:24:22;8.18;;;5.60;;
48161;SDS011;33950;48.154;16.316;2022-09-13T09:27:10;9.88;;;5.53;;
48161;SDS011;33950;48.154;16.316;2022-09-13T09:30:00;8.27;;;5.32;;
48161;SDS011;33950;48.154;16.316;2022-09-13T09:32:57;10.57;;;5.50;;
48161;SDS011;33950;48.154;16.316;2022-09-13T09:36:05;7.90;;;4.90;;
48161;SDS011;33950;48.154;16.316;2022-09-13T09:38:59;5.82;;;4.80;;
48161;SDS011;33950;48.154;16.316;2022-09-13T09:41:48;8.35;;;4.82;;
48161;SDS011;33950;48.154;16.316;2022-09-13T09:44:34;8.73;;;6.10;;
48161;SDS011;33950;48.154;16.316;2022-09-13T09:47:20;10.82;;;5.88;;
48161;SDS011;33950;48.154;16.316;2022-09-13T09:50:09;11.55;;;5.53;;
48161;SDS011;33950;48.154;16.316;2022-09-13T09:53:00;11.93;;;6.13;;
48161;SDS011;33950;48.154;16.316;2022-09-13T09:58:40;8.88;;;6.10;;
48161;SDS011;33950;48.154;16.316;2022-09-13T10:01:28;9.35;;;5.38;;
48161;SDS011;33950;48.154;16.316;2022-09-13T10:04:17;8.98;;;6.28;;
48161;SDS011;33950;48.154;16.316;2022-09-13T10:07:07;7.75;;;4.68;;
48161;SDS011;33950;48.154;16.316;2022-09-13T10:10:18;8.32;;;5.45;;
48161;SDS011;33950;48.154;16.316;2022-09-13T10:13:13;13.48;;;5.60;;
48161;SDS011;33950;48.154;16.316;2022-09-13T10:16:02;7.22;;;4.68;;
48161;SDS011;33950;48.154;16.316;2022-09-13T10:18:50;7.90;;;4.30;;
48161;SDS011;33950;48.154;16.316;2022-09-13T10:21:36;12.00;;;5.13;;
48161;SDS011;33950;48.154;16.316;2022-09-13T10:24:22;6.25;;;4.50;;
48161;SDS011;33950;48.154;16.316;2022-09-13T10:27:17;7.25;;;4.70;;
48161;SDS011;33950;48.154;16.316;2022-09-13T10:30:22;8.75;;;4.70;;
48161;SDS011;33950;48.154;16.316;2022-09-13T10:33:20;6.28;;;4.80;;
48161;SDS011;33950;48.154;16.316;2022-09-13T10:36:12;7.20;;;4.40;;
48161;SDS011;33950;48.154;16.316;2022-09-13T10:39:00;11.43;;;6.30;;
48161;SDS011;33950;48.154;16.316;2022-09-13T10:41:50;10.73;;;5.53;;
48161;SDS011;33950;48.154;16.316;2022-09-13T10:44:39;15.20;;;4.53;;
48161;SDS011;33950;48.154;16.316;2022-09-13T10:47:30;9.77;;;4.18;;
48161;SDS011;33950;48.154;16.316;2022-09-13T10:50:21;6.80;;;4.10;;
48161;SDS011;33950;48.154;16.316;2022-09-13T10:53:25;7.63;;;4.78;;
48161;SDS011;33950;48.154;16.316;2022-09-13T10:56:18;7.57;;;4.20;;
48161;SDS011;33950;48.154;16.316;2022-09-13T10:59:13;7.43;;;3.85;;
48161;SDS011;33950;48.154;16.316;2022-09-13T11:02:15;11.65;;;4.07;;
48161;SDS011;33950;48.154;16.316;2022-09-13T11:05:27;5.90;;;3.63;;
48161;SDS011;33950;48.154;16.316;2022-09-13T11:11:11;5.78;;;3.80;;
48161;SDS011;33950;48.154;16.316;2022-09-13T11:14:09;10.57;;;3.92;;
48161;SDS011;33950;48.154;16.316;2022-09-13T11:17:08;8.20;;;3.60;;
48161;SDS011;33950;48.154;16.316;2022-09-13T11:20:12;7.93;;;3.75;;
48161;SDS011;33950;48.154;16.316;2022-09-13T11:23:20;4.88;;;2.92;;
48161;SDS011;33950;48.154;16.316;2022-09-13T11:26:38;7.53;;;2.85;;
48161;SDS011;33950;48.154;16.316;2022-09-13T11:29:46;4.40;;;3.03;;
48161;SDS011;33950;48.154;16.316;2022-09-13T11:36:09;5.25;;;3.33;;
48161;SDS011;33950;48.154;16.316;2022-09-13T11:39:12;10.90;;;4.18;;
48161;SDS011;33950;48.154;16.316;2022-09-13T11:42:07;6.80;;;4.15;;
48161;SDS011;33950;48.154;16.316;2022-09-13T11:51:23;3.78;;;3.33;;
48161;SDS011;33950;48.154;16.316;2022-09-13T11:54:19;4.88;;;3.78;;
48161;SDS011;33950;48.154;16.316;2022-09-13T11:57:15;3.72;;;2.92;;
48161;SDS011;33950;48.154;16.316;2022-09-13T12:00:08;9.07;;;3.20;;
48161;SDS011;33950;48.154;16.316;2022-09-13T12:03:04;9.45;;;3.03;;
48161;SDS011;33950;48.154;16.316;2022-09-13T12:06:00;5.00;;;3.03;;
48161;SDS011;33950;48.154;16.316;2022-09-13T12:08:51;4.15;;;2.85;;
48161;SDS011;33950;48.154;16.316;2022-09-13T12:11:46;3.63;;;3.20;;
48161;SDS011;33950;48.154;16.316;2022-09-13T12:14:43;5.75;;;3.03;;
48161;SDS011;33950;48.154;16.316;2022-09-13T12:17:35;8.88;;;3.40;;
48161;SDS011;33950;48.154;16.316;2022-09-13T12:20:27;5.70;;;2.67;;
48161;SDS011;33950;48.154;16.316;2022-09-13T12:23:18;3.97;;;2.63;;
48161;SDS011;33950;48.154;16.316;2022-09-13T12:26:12;5.28;;;2.85;;
48161;SDS011;33950;48.154;16.316;2022-09-13T12:29:06;3.75;;;2.53;;
48161;SDS011;33950;48.154;16.316;2022-09-13T12:31:59;4.10;;;2.00;;
48161;SDS011;33950;48.154;16.316;2022-09-13T12:34:49;6.25;;;3.47;;
48161;SDS011;33950;48.154;16.316;2022-09-13T12:37:43;4.18;;;2.78;;
48161;SDS011;33950;48.154;16.316;2022-09-13T12:41:07;3.63;;;3.08;;
48161;SDS011;33950;48.154;16.316;2022-09-13T12:44:07;5.07;;;2.65;;
48161;SDS011;33950;48.154;16.316;2022-09-13T12:47:27;3.17;;;2.13;;
48161;SDS011;33950;48.154;16.316;2022-09-13T12:50:41;5.80;;;3.13;;
48161;SDS011;33950;48.154;16.316;2022-09-13T12:53:43;4.63;;;2.97;;
48161;SDS011;33950;48.154;16.316;2022-09-13T12:57:02;5.28;;;2.80;;
48161;SDS011;33950;48.154;16.316;2022-09-13T13:00:15;11.38;;;2.50;;
48161;SDS011;33950;48.154;16.316;2022-09-13T13:03:05;8.32;;;2.38;;
48161;SDS011;33950;48.154;16.316;2022-09-13T13:06:06;5.13;;;2.60;;
48161;SDS011;33950;48.154;16.316;2022-09-13T13:08:55;3.08;;;2.30;;
48161;SDS011;33950;48.154;16.316;2022-09-13T13:11:44;3.17;;;2.22;;
48161;SDS011;33950;48.154;16.316;2022-09-13T13:14:48;4.40;;;2.50;;
48161;SDS011;33950;48.154;16.316;2022-09-13T13:17:40;5.90;;;2.75;;
48161;SDS011;33950;48.154;16.316;2022-09-13T13:20:38;7.72;;;2.55;;
48161;SDS011;33950;48.154;16.316;2022-09-13T13:23:39;9.23;;;2.65;;
48161;SDS011;33950;48.154;16.316;2022-09-13T13:29:31;6.82;;;2.42;;
48161;SDS011;33950;48.154;16.316;2022-09-13T13:32:17;4.47;;;2.70;;
48161;SDS011;33950;48.154;16.316;2022-09-13T13:38:30;4.53;;;1.70;;
48161;SDS011;33950;48.154;16.316;2022-09-13T13:41:35;1.83;;;1.55;;
48161;SDS011;33950;48.154;16.316;2022-09-13T13:48:08;3.83;;;2.13;;
48161;SDS011;33950;48.154;16.316;2022-09-13T13:51:17;4.15;;;2.03;;
48161;SDS011;33950;48.154;16.316;2022-09-13T13:57:21;6.97;;;2.53;;
48161;SDS011;33950;48.154;16.316;2022-09-13T14:00:12;3.90;;;1.88;;
48161;SDS011;33950;48.154;16.316;2022-09-13T14:03:05;4.57;;;2.75;;
48161;SDS011;33950;48.154;16.316;2022-09-13T14:06:02;6.18;;;2.17;;
48161;SDS011;33950;48.154;16.316;2022-09-13T14:09:02;6.55;;;2.50;;
48161;SDS011;33950;48.154;16.316;2022-09-13T14:11:55;4.43;;;2.20;;
48161;SDS011;33950;48.154;16.316;2022-09-13T14:14:55;4.15;;;2.47;;
48161;SDS011;33950;48.154;16.316;2022-09-13T14:17:55;2.22;;;2.03;;
48161;SDS011;33950;48.154;16.316;2022-09-13T14:20:58;2.92;;;2.33;;
48161;SDS011;33950;48.154;16.316;2022-09-13T14:23:45;5.53;;;2.15;;
48161;SDS011;33950;48.154;16.316;2022-09-13T14:26:33;3.45;;;2.80;;
48161;SDS011;33950;48.154;16.316;2022-09-13T14:29:20;3.38;;;2.30;;
48161;SDS011;33950;48.154;16.316;2022-09-13T14:32:10;3.30;;;2.40;;
48161;SDS011;33950;48.154;16.316;2022-09-13T14:35:02;2.88;;;2.05;;
48161;SDS011;33950;48.154;16.316;2022-09-13T14:37:50;4.18;;;2.15;;
48161;SDS011;33950;48.154;16.316;2022-09-13T14:40:37;4.43;;;2.50;;
48161;SDS011;33950;48.154;16.316;2022-09-13T14:43:26;6.13;;;2.97;;
48161;SDS011;33950;48.154;16.316;2022-09-13T14:46:14;8.57;;;2.95;;
48161;SDS011;33950;48.154;16.316;2022-09-13T14:49:05;6.55;;;3.20;;
48161;SDS011;33950;48.154;16.316;2022-09-13T14:51:54;3.40;;;2.63;;
48161;SDS011;33950;48.154;16.316;2022-09-13T14:54:45;6.25;;;3.28;;
48161;SDS011;33950;48.154;16.316;2022-09-13T14:57:37;5.43;;;3.10;;
48161;SDS011;33950;48.154;16.316;2022-09-13T15:00:30;13.43;;;3.17;;
48161;SDS011;33950;48.154;16.316;2022-09-13T15:03:18;3.85;;;2.45;;
48161;SDS011;33950;48.154;16.316;2022-09-13T15:06:05;12.55;;;2.75;;
48161;SDS011;33950;48.154;16.316;2022-09-13T15:08:52;9.85;;;3.88;;
48161;SDS011;33950;48.154;16.316;2022-09-13T15:11:41;4.22;;;2.47;;
48161;SDS011;33950;48.154;16.316;2022-09-13T15:14:40;4.03;;;2.17;;
48161;SDS011;33950;48.154;16.316;2022-09-13T15:17:29;4.43;;;2.63;;
48161;SDS011;33950;48.154;16.316;2022-09-13T15:20:15;6.45;;;2.17;;
48161;SDS011;33950;48.154;16.316;2022-09-13T15:23:02;4.32;;;2.17;;
48161;SDS011;33950;48.154;16.316;2022-09-13T15:25:49;2.80;;;2.22;;
48161;SDS011;33950;48.154;16.316;2022-09-13T15:28:49;7.97;;;3.00;;
48161;SDS011;33950;48.154;16.316;2022-09-13T15:31:38;2.40;;;1.75;;
48161;SDS011;33950;48.154;16.316;2022-09-13T15:34:25;8.98;;;2.40;;
48161;SDS011;33950;48.154;16.316;2022-09-13T15:37:13;6.03;;;2.50;;
48161;SDS011;33950;48.154;16.316;2022-09-13T15:40:09;5.93;;;2.08;;
48161;SDS011;33950;48.154;16.316;2022-09-13T15:42:59;6.30;;;3.70;;
48161;SDS011;33950;48.154;16.316;2022-09-13T15:45:46;4.00;;;3.10;;
48161;SDS011;33950;48.154;16.316;2022-09-13T15:48:33;8.70;;;4.82;;
48161;SDS011;33950;48.154;16.316;2022-09-13T15:51:22;5.22;;;3.60;;
48161;SDS011;33950;48.154;16.316;2022-09-13T15:54:11;4.80;;;2.20;;
48161;SDS011;33950;48.154;16.316;2022-09-13T15:56:58;7.85;;;2.50;;
48161;SDS011;33950;48.154;16.316;2022-09-13T15:59:44;3.70;;;1.92;;
48161;SDS011;33950;48.154;16.316;2022-09-13T16:02:30;4.80;;;2.85;;
48161;SDS011;33950;48.154;16.316;2022-09-13T16:05:17;2.80;;;2.33;;
48161;SDS011;33950;48.154;16.316;2022-09-13T16:08:05;8.48;;;2.42;;
48161;SDS011;33950;48.154;16.316;2022-09-13T16:10:54;11.15;;;2.70;;
48161;SDS011;33950;48.154;16.316;2022-09-13T16:13:40;4.45;;;2.72;;
48161;SDS011;33950;48.154;16.316;2022-09-13T16:16:26;4.65;;;3.10;;
48161;SDS011;33950;48.154;16.316;2022-09-13T16:19:12;13.10;;;2.40;;
48161;SDS011;33950;48.154;16.316;2022-09-13T16:22:00;4.05;;;2.38;;
48161;SDS011;33950;48.154;16.316;2022-09-13T16:24:48;3.63;;;2.42;;
48161;SDS011;33950;48.154;16.316;2022-09-13T16:27:34;7.53;;;2.20;;
48161;SDS011;33950;48.154;16.316;2022-09-13T16:30:20;7.53;;;2.70;;
48161;SDS011;33950;48.154;16.316;2022-09-13T16:33:07;5.93;;;2.70;;
48161;SDS011;33950;48.154;16.316;2022-09-13T16:35:53;3.45;;;2.00;;
48161;SDS011;33950;48.154;16.316;2022-09-13T16:38:39;6.47;;;2.60;;
48161;SDS011;33950;48.154;16.316;2022-09-13T16:41:27;12.50;;;3.20;;
48161;SDS011;33950;48.154;16.316;2022-09-13T16:44:13;7.32;;;3.05;;
48161;SDS011;33950;48.154;16.316;2022-09-13T16:47:00;7.10;;;2.65;;
48161;SDS011;33950;48.154;16.316;2022-09-13T16:49:46;7.20;;;3.42;;
48161;SDS011;33950;48.154;16.316;2022-09-13T16:52:33;8.60;;;2.72;;
48161;SDS011;33950;48.154;16.316;2022-09-13T16:55:19;5.38;;;3.03;;
48161;SDS011;33950;48.154;16.316;2022-09-13T16:58:07;3.75;;;2.90;;
48161;SDS011;33950;48.154;16.316;2022-09-13T17:00:53;9.98;;;3.65;;
48161;SDS011;33950;48.154;16.316;2022-09-13T17:03:39;7.55;;;2.67;;
48161;SDS011;33950;48.154;16.316;2022-09-13T17:06:25;3.70;;;2.50;;
48161;SDS011;33950;48.154;16.316;2022-09-13T17:09:11;5.20;;;2.88;;
48161;SDS011;33950;48.154;16.316;2022-09-13T17:11:58;7.18;;;3.90;;
48161;SDS011;33950;48.154;16.316;2022-09-13T17:14:46;10.68;;;4.95;;
48161;SDS011;33950;48.154;16.316;2022-09-13T17:17:32;7.38;;;4.43;;
48161;SDS011;33950;48.154;16.316;2022-09-13T17:20:20;5.93;;;3.28;;
48161;SDS011;33950;48.154;16.316;2022-09-13T17:23:06;5.88;;;3.47;;
48161;SDS011;33950;48.154;16.316;2022-09-13T17:25:53;9.02;;;3.58;;
48161;SDS011;33950;48.154;16.316;2022-09-13T17:28:39;6.78;;;3.38;;